createdAt,value
2018-02-05T00:00:36.951Z,0
2018-02-05T00:01:37.016Z,0
2018-02-05T00:02:36.952Z,0
2018-02-05T00:03:36.958Z,0
2018-02-05T00:04:37.021Z,0
2018-02-05T00:05:36.952Z,0
2018-02-05T00:06:37.019Z,0
2018-02-05T00:07:37.021Z,0
2018-02-05T00:08:36.957Z,0
2018-02-05T00:09:37.024Z,0
2018-02-05T00:10:36.959Z,0
2018-02-05T00:11:37.031Z,0
2018-02-05T00:12:36.963Z,0
2018-02-05T00:13:37.085Z,0
2018-02-05T00:14:36.960Z,0
2018-02-05T00:15:37.029Z,0
2018-02-05T00:16:36.960Z,0
2018-02-05T00:17:37.024Z,0
2018-02-05T00:18:36.977Z,0
2018-02-05T00:19:36.966Z,0
2018-02-05T00:20:36.964Z,0
2018-02-05T00:21:37.029Z,0
2018-02-05T00:22:37.053Z,0
2018-02-05T00:23:37.031Z,0
2018-02-05T00:24:36.962Z,0
2018-02-05T00:25:37.043Z,0
2018-02-05T00:26:37.032Z,0
2018-02-05T00:27:36.971Z,0
2018-02-05T00:28:36.959Z,0
2018-02-05T00:29:36.905Z,0
2018-02-05T00:30:37.019Z,0
2018-02-05T00:31:36.960Z,0
2018-02-05T00:32:36.998Z,0
2018-02-05T00:33:36.990Z,0
2018-02-05T00:34:36.914Z,0
2018-02-05T00:35:36.991Z,0
2018-02-05T00:36:36.993Z,0
2018-02-05T00:37:37.046Z,0
2018-02-05T00:38:36.922Z,0
2018-02-05T00:39:37.025Z,0
2018-02-05T00:40:37.022Z,0
2018-02-05T00:41:36.927Z,0
2018-02-05T00:42:36.974Z,0
2018-02-05T00:43:36.948Z,0
2018-02-05T00:44:36.949Z,0
2018-02-05T00:45:36.993Z,0
2018-02-05T00:46:36.943Z,0
2018-02-05T00:47:36.917Z,0
2018-02-05T00:48:36.968Z,0
2018-02-05T00:49:36.914Z,0
2018-02-05T00:50:37.032Z,0
2018-02-05T00:51:36.913Z,0
2018-02-05T00:52:36.908Z,0
2018-02-05T00:53:36.980Z,0
2018-02-05T00:54:36.913Z,0
2018-02-05T00:55:36.938Z,0
2018-02-05T00:56:36.994Z,0
2018-02-05T00:57:36.934Z,0
2018-02-05T00:58:36.919Z,0
2018-02-05T00:59:37.040Z,0
2018-02-05T01:00:36.934Z,0
2018-02-05T01:01:36.957Z,0
2018-02-05T01:02:37.049Z,0
2018-02-05T01:03:37.044Z,0
2018-02-05T01:04:37.051Z,0
2018-02-05T01:05:36.964Z,0
2018-02-05T01:06:36.968Z,0
2018-02-05T01:07:37.067Z,0
2018-02-05T01:08:36.992Z,0
2018-02-05T01:09:37.059Z,0
2018-02-05T01:10:37.060Z,0
2018-02-05T01:11:37.061Z,0
2018-02-05T01:12:36.996Z,0
2018-02-05T01:13:37.068Z,0
2018-02-05T01:14:37.064Z,0
2018-02-05T01:15:36.995Z,0
2018-02-05T01:16:37.066Z,0
2018-02-05T01:17:37.011Z,0
2018-02-05T01:18:36.933Z,0
2018-02-05T01:19:36.953Z,0
2018-02-05T01:20:36.961Z,0
2018-02-05T01:21:37.019Z,0
2018-02-05T01:22:36.994Z,0
2018-02-05T01:23:37.048Z,0
2018-02-05T01:24:37.048Z,0
2018-02-05T01:25:36.961Z,0
2018-02-05T01:26:36.954Z,0
2018-02-05T01:27:36.960Z,0
2018-02-05T01:28:37.001Z,0
2018-02-05T01:29:37.070Z,0
2018-02-05T01:30:37.009Z,0
2018-02-05T01:31:37.166Z,0
2018-02-05T01:32:37.072Z,0
2018-02-05T01:33:37.034Z,0
2018-02-05T01:34:37.118Z,0
2018-02-05T01:35:37.010Z,0
2018-02-05T01:36:37.076Z,0
2018-02-05T01:37:37.009Z,0
2018-02-05T01:38:37.079Z,0
2018-02-05T01:39:37.079Z,0
2018-02-05T01:40:37.014Z,0
2018-02-05T01:41:37.082Z,0
2018-02-05T01:42:37.078Z,0
2018-02-05T01:43:37.016Z,0
2018-02-05T01:44:37.085Z,0
2018-02-05T01:45:37.019Z,0
2018-02-05T01:46:37.079Z,0
2018-02-05T01:47:37.014Z,0
2018-02-05T01:48:37.087Z,0
2018-02-05T01:49:37.018Z,0
2018-02-05T01:50:37.082Z,0
2018-02-05T01:51:37.018Z,0
2018-02-05T01:52:37.084Z,0
2018-02-05T01:53:37.019Z,0
2018-02-05T01:54:37.090Z,0
2018-02-05T01:55:37.105Z,0
2018-02-05T01:56:37.016Z,0
2018-02-05T01:57:36.977Z,0
2018-02-05T01:58:37.028Z,0
2018-02-05T01:59:37.087Z,0
2018-02-05T02:00:37.025Z,0
2018-02-05T02:01:37.021Z,0
2018-02-05T02:02:37.093Z,0
2018-02-05T02:03:37.028Z,0
2018-02-05T02:04:37.094Z,0
2018-02-05T02:05:37.023Z,0
2018-02-05T02:06:37.095Z,0
2018-02-05T02:07:37.093Z,0
2018-02-05T02:08:37.012Z,0
2018-02-05T02:09:37.088Z,0
2018-02-05T02:10:37.083Z,0
2018-02-05T02:11:37.081Z,0
2018-02-05T02:12:37.000Z,0
2018-02-05T02:13:37.085Z,0
2018-02-05T02:14:37.089Z,0
2018-02-05T02:15:36.967Z,0
2018-02-05T02:16:37.098Z,0
2018-02-05T02:17:37.088Z,0
2018-02-05T02:18:37.100Z,0
2018-02-05T02:19:37.038Z,0
2018-02-05T02:20:37.106Z,0
2018-02-05T02:21:37.038Z,0
2018-02-05T02:22:37.041Z,0
2018-02-05T02:23:37.036Z,0
2018-02-05T02:24:37.108Z,0
2018-02-05T02:25:37.040Z,0
2018-02-05T02:26:37.047Z,0
2018-02-05T02:27:37.106Z,0
2018-02-05T02:28:37.106Z,0
2018-02-05T02:29:37.041Z,0
2018-02-05T02:30:37.108Z,0
2018-02-05T02:31:37.049Z,0
2018-02-05T02:32:37.044Z,0
2018-02-05T02:33:37.109Z,0
2018-02-05T02:34:37.047Z,0
2018-02-05T02:35:37.109Z,0
2018-02-05T02:36:37.115Z,0
2018-02-05T02:37:37.045Z,0
2018-02-05T02:38:37.145Z,0
2018-02-05T02:39:37.005Z,0
2018-02-05T02:40:37.098Z,0
2018-02-05T02:41:37.008Z,0
2018-02-05T02:42:37.068Z,0
2018-02-05T02:43:37.075Z,0
2018-02-05T02:44:36.985Z,0
2018-02-05T02:45:37.080Z,0
2018-02-05T02:46:37.042Z,0
2018-02-05T02:47:37.066Z,0
2018-02-05T02:48:37.055Z,0
2018-02-05T02:49:37.129Z,0
2018-02-05T02:50:37.057Z,0
2018-02-05T02:51:37.127Z,0
2018-02-05T02:52:37.059Z,0
2018-02-05T02:53:37.121Z,0
2018-02-05T02:54:37.157Z,0
2018-02-05T02:55:37.124Z,0
2018-02-05T02:56:37.124Z,0
2018-02-05T02:57:37.083Z,0
2018-02-05T02:58:37.123Z,0
2018-02-05T02:59:37.126Z,0
2018-02-05T03:00:37.055Z,0
2018-02-05T03:01:37.128Z,0
2018-02-05T03:02:37.063Z,0
2018-02-05T03:03:37.128Z,0
2018-02-05T03:04:37.061Z,0
2018-02-05T03:05:37.126Z,0
2018-02-05T03:06:37.061Z,0
2018-02-05T03:07:37.065Z,0
2018-02-05T03:08:37.062Z,0
2018-02-05T03:09:37.034Z,0
2018-02-05T03:10:36.998Z,0
2018-02-05T03:11:37.056Z,0
2018-02-05T03:12:37.001Z,0
2018-02-05T03:13:37.000Z,0
2018-02-05T03:14:37.125Z,0
2018-02-05T03:15:37.057Z,0
2018-02-05T03:16:37.085Z,0
2018-02-05T03:17:37.041Z,0
2018-02-05T03:18:37.039Z,0
2018-02-05T03:19:37.090Z,0
2018-02-05T03:20:37.037Z,0
2018-02-05T03:21:37.089Z,0
2018-02-05T03:22:36.990Z,0
2018-02-05T03:23:37.045Z,0
2018-02-05T03:24:37.086Z,0
2018-02-05T03:25:37.040Z,0
2018-02-05T03:26:37.059Z,0
2018-02-05T03:27:37.041Z,0
2018-02-05T03:28:37.042Z,0
2018-02-05T03:29:37.127Z,0
2018-02-05T03:30:37.018Z,0
2018-02-05T03:31:37.077Z,0
2018-02-05T03:32:37.097Z,0
2018-02-05T03:33:37.141Z,0
2018-02-05T03:34:37.135Z,0
2018-02-05T03:35:37.077Z,0
2018-02-05T03:36:37.014Z,0
2018-02-05T03:37:37.152Z,0
2018-02-05T03:38:37.152Z,0
2018-02-05T03:39:37.088Z,0
2018-02-05T03:40:37.157Z,0
2018-02-05T03:41:37.151Z,0
2018-02-05T03:42:37.151Z,0
2018-02-05T03:43:37.089Z,0
2018-02-05T03:44:37.173Z,0
2018-02-05T03:45:37.089Z,0
2018-02-05T03:46:37.152Z,0
2018-02-05T03:47:37.092Z,0
2018-02-05T03:48:37.152Z,0
2018-02-05T03:49:37.153Z,0
2018-02-05T03:50:37.085Z,0
2018-02-05T03:51:37.159Z,0
2018-02-05T03:52:37.159Z,0
2018-02-05T03:53:37.156Z,0
2018-02-05T03:54:37.096Z,0
2018-02-05T03:55:37.119Z,0
2018-02-05T03:56:37.157Z,0
2018-02-05T03:57:37.095Z,0
2018-02-05T03:58:37.182Z,0
2018-02-05T03:59:37.096Z,0
2018-02-05T04:00:37.162Z,0
2018-02-05T04:01:37.172Z,0
2018-02-05T04:02:37.098Z,0
2018-02-05T04:03:37.167Z,0
2018-02-05T04:04:37.104Z,0
2018-02-05T04:05:37.164Z,0
2018-02-05T04:06:37.103Z,0
2018-02-05T04:07:37.167Z,0
2018-02-05T04:08:37.159Z,0
2018-02-05T04:09:37.071Z,0
2018-02-05T04:10:37.155Z,0
2018-02-05T04:11:37.072Z,0
2018-02-05T04:12:37.171Z,0
2018-02-05T04:13:37.165Z,0
2018-02-05T04:14:37.158Z,0
2018-02-05T04:15:37.071Z,0
2018-02-05T04:16:37.084Z,0
2018-02-05T04:17:37.055Z,0
2018-02-05T04:18:37.169Z,0
2018-02-05T04:19:37.106Z,0
2018-02-05T04:20:37.110Z,0
2018-02-05T04:21:37.174Z,0
2018-02-05T04:22:37.106Z,0
2018-02-05T04:23:37.175Z,0
2018-02-05T04:24:37.108Z,0
2018-02-05T04:25:37.174Z,0
2018-02-05T04:26:37.177Z,0
2018-02-05T04:27:37.114Z,0
2018-02-05T04:28:37.178Z,0
2018-02-05T04:29:37.112Z,0
2018-02-05T04:30:37.185Z,0
2018-02-05T04:31:37.121Z,0
2018-02-05T04:32:37.178Z,0
2018-02-05T04:33:37.167Z,0
2018-02-05T04:34:37.118Z,0
2018-02-05T04:35:37.186Z,0
2018-02-05T04:36:37.122Z,0
2018-02-05T04:37:37.190Z,0
2018-02-05T04:38:37.124Z,0
2018-02-05T04:39:37.186Z,0
2018-02-05T04:40:37.184Z,0
2018-02-05T04:41:37.123Z,0
2018-02-05T04:42:37.195Z,0
2018-02-05T04:43:37.192Z,0
2018-02-05T04:44:37.122Z,0
2018-02-05T04:45:37.189Z,0
2018-02-05T04:46:37.190Z,0
2018-02-05T04:47:37.123Z,0
2018-02-05T04:48:37.127Z,0
2018-02-05T04:49:37.190Z,0
2018-02-05T04:50:37.199Z,0
2018-02-05T04:51:37.129Z,0
2018-02-05T04:52:37.193Z,0
2018-02-05T04:53:37.128Z,0
2018-02-05T04:54:37.195Z,0
2018-02-05T04:55:37.255Z,0
2018-02-05T04:56:37.128Z,0
2018-02-05T04:57:37.130Z,0
2018-02-05T04:58:37.120Z,0
2018-02-05T04:59:37.117Z,0
2018-02-05T05:00:37.108Z,0
2018-02-05T05:01:37.191Z,0
2018-02-05T05:02:37.197Z,0
2018-02-05T05:03:37.189Z,0
2018-02-05T05:04:37.206Z,0
2018-02-05T05:05:37.191Z,0
2018-02-05T05:06:37.243Z,0
2018-02-05T05:07:37.133Z,0
2018-02-05T05:08:37.137Z,0
2018-02-05T05:09:37.206Z,0
2018-02-05T05:10:37.161Z,0
2018-02-05T05:11:37.222Z,0
2018-02-05T05:12:37.208Z,0
2018-02-05T05:13:37.095Z,0
2018-02-05T05:14:37.208Z,0
2018-02-05T05:15:37.145Z,0
2018-02-05T05:16:37.153Z,0
2018-02-05T05:17:37.211Z,0
2018-02-05T05:18:37.211Z,0
2018-02-05T05:19:37.144Z,0
2018-02-05T05:20:37.209Z,0
2018-02-05T05:21:37.224Z,0
2018-02-05T05:22:37.258Z,0
2018-02-05T05:23:37.144Z,0
2018-02-05T05:24:37.215Z,0
2018-02-05T05:25:37.210Z,0
2018-02-05T05:26:37.145Z,0
2018-02-05T05:27:37.217Z,0
2018-02-05T05:28:37.118Z,0
2018-02-05T05:29:37.160Z,0
2018-02-05T05:30:37.070Z,0
2018-02-05T05:31:37.072Z,0
2018-02-05T05:32:37.137Z,0
2018-02-05T05:33:37.071Z,0
2018-02-05T05:34:37.165Z,0
2018-02-05T05:35:37.072Z,0
2018-02-05T05:36:37.073Z,0
2018-02-05T05:37:37.080Z,0
2018-02-05T05:38:37.252Z,0
2018-02-05T05:39:37.154Z,0
2018-02-05T05:40:37.206Z,0
2018-02-05T05:41:37.175Z,0
2018-02-05T05:42:37.182Z,0
2018-02-05T05:43:37.210Z,0
2018-02-05T05:44:37.128Z,0
2018-02-05T05:45:37.219Z,0
2018-02-05T05:46:37.188Z,0
2018-02-05T05:47:37.150Z,0
2018-02-05T05:48:37.149Z,0
2018-02-05T05:49:37.189Z,0
2018-02-05T05:50:37.132Z,0
2018-02-05T05:51:37.185Z,0
2018-02-05T05:52:37.218Z,0
2018-02-05T05:53:37.223Z,0
2018-02-05T05:54:37.226Z,0
2018-02-05T05:55:37.192Z,0
2018-02-05T05:56:37.188Z,0
2018-02-05T05:57:37.223Z,0
2018-02-05T05:58:37.236Z,0
2018-02-05T05:59:37.172Z,0
2018-02-05T06:00:37.235Z,0
2018-02-05T06:01:37.174Z,0
2018-02-05T06:02:37.173Z,0
2018-02-05T06:03:37.238Z,0
2018-02-05T06:04:37.240Z,0
2018-02-05T06:05:37.239Z,0
2018-02-05T06:06:37.248Z,0
2018-02-05T06:07:37.178Z,0
2018-02-05T06:08:37.092Z,0
2018-02-05T06:09:37.095Z,0
2018-02-05T06:10:37.187Z,0
2018-02-05T06:11:37.144Z,0
2018-02-05T06:12:37.096Z,0
2018-02-05T06:13:37.105Z,0
2018-02-05T06:14:37.141Z,0
2018-02-05T06:15:37.190Z,0
2018-02-05T06:16:37.264Z,0
2018-02-05T06:17:37.187Z,0
2018-02-05T06:18:37.225Z,0
2018-02-05T06:19:37.236Z,0
2018-02-05T06:20:37.227Z,0
2018-02-05T06:21:37.118Z,0
2018-02-05T06:22:37.119Z,0
2018-02-05T06:23:37.111Z,0
2018-02-05T06:24:37.208Z,0
2018-02-05T06:25:37.235Z,0
2018-02-05T06:26:37.174Z,0
2018-02-05T06:27:37.200Z,0
2018-02-05T06:28:37.178Z,0
2018-02-05T06:29:37.118Z,0
2018-02-05T06:30:37.180Z,0
2018-02-05T06:31:37.180Z,0
2018-02-05T06:32:37.154Z,0
2018-02-05T06:33:37.238Z,0
2018-02-05T06:34:37.236Z,0
2018-02-05T06:35:37.240Z,0
2018-02-05T06:36:37.183Z,0
2018-02-05T06:37:37.129Z,0
2018-02-05T06:38:37.264Z,0
2018-02-05T06:39:37.262Z,0
2018-02-05T06:40:37.192Z,0
2018-02-05T06:41:37.265Z,0
2018-02-05T06:42:37.194Z,0
2018-02-05T06:43:37.262Z,0
2018-02-05T06:44:37.348Z,0
2018-02-05T06:45:37.265Z,0
2018-02-05T06:46:37.200Z,0
2018-02-05T06:47:37.262Z,0
2018-02-05T06:48:37.266Z,0
2018-02-05T06:49:37.205Z,0
2018-02-05T06:50:37.269Z,0
2018-02-05T06:51:37.270Z,0
2018-02-05T06:52:37.199Z,0
2018-02-05T06:53:37.204Z,0
2018-02-05T06:54:37.203Z,0
2018-02-05T06:55:37.291Z,0
2018-02-05T06:56:37.208Z,0
2018-02-05T06:57:37.277Z,0
2018-02-05T06:58:37.261Z,0
2018-02-05T06:59:37.273Z,0
2018-02-05T07:00:37.206Z,0
2018-02-05T07:01:37.271Z,0
2018-02-05T07:02:37.205Z,0
2018-02-05T07:03:37.276Z,0
2018-02-05T07:04:37.212Z,0
2018-02-05T07:05:37.274Z,0
2018-02-05T07:06:37.208Z,0
2018-02-05T07:07:37.298Z,0
2018-02-05T07:08:37.263Z,0
2018-02-05T07:09:37.228Z,0
2018-02-05T07:10:37.270Z,0
2018-02-05T07:11:37.165Z,0
2018-02-05T07:12:37.270Z,0
2018-02-05T07:13:37.184Z,0
2018-02-05T07:14:37.165Z,0
2018-02-05T07:15:37.150Z,0
2018-02-05T07:16:37.186Z,0
2018-02-05T07:17:37.272Z,0
2018-02-05T07:18:37.259Z,0
2018-02-05T07:19:37.305Z,0
2018-02-05T07:20:37.144Z,0
2018-02-05T07:21:37.139Z,0
2018-02-05T07:22:37.192Z,0
2018-02-05T07:23:37.140Z,0
2018-02-05T07:24:37.142Z,0
2018-02-05T07:25:37.241Z,0
2018-02-05T07:26:37.192Z,0
2018-02-05T07:27:37.235Z,0
2018-02-05T07:28:37.193Z,0
2018-02-05T07:29:37.280Z,0
2018-02-05T07:30:37.229Z,0
2018-02-05T07:31:37.217Z,0
2018-02-05T07:32:37.191Z,0
2018-02-05T07:33:37.226Z,0
2018-02-05T07:34:37.211Z,0
2018-02-05T07:35:37.284Z,0
2018-02-05T07:36:37.293Z,0
2018-02-05T07:37:37.200Z,0
2018-02-05T07:38:37.252Z,0
2018-02-05T07:39:37.286Z,0
2018-02-05T07:40:37.283Z,0
2018-02-05T07:41:37.221Z,0
2018-02-05T07:42:37.225Z,0
2018-02-05T07:43:37.216Z,0
2018-02-05T07:44:37.329Z,0
2018-02-05T07:45:37.263Z,0
2018-02-05T07:46:37.203Z,0
2018-02-05T07:47:37.253Z,0
2018-02-05T07:48:37.281Z,19
2018-02-05T07:49:37.227Z,13
2018-02-05T07:50:37.193Z,9
2018-02-05T07:51:37.299Z,7
2018-02-05T07:52:37.240Z,6
2018-02-05T07:53:37.301Z,6
2018-02-05T07:54:37.241Z,5
2018-02-05T07:55:37.302Z,5
2018-02-05T07:56:37.300Z,5
2018-02-05T07:57:37.273Z,7
2018-02-05T07:58:37.236Z,8
2018-02-05T07:59:37.306Z,9
2018-02-05T08:00:37.318Z,10
2018-02-05T08:01:37.236Z,9
2018-02-05T08:02:37.193Z,9
2018-02-05T08:03:37.241Z,9
2018-02-05T08:04:37.245Z,11
2018-02-05T08:05:37.313Z,12
2018-02-05T08:06:37.312Z,13
2018-02-05T08:07:37.246Z,13
2018-02-05T08:08:37.320Z,12
2018-02-05T08:09:37.248Z,11
2018-02-05T08:10:37.312Z,10
2018-02-05T08:11:37.246Z,9
2018-02-05T08:12:37.322Z,10
2018-02-05T08:13:37.312Z,10
2018-02-05T08:14:37.401Z,9
2018-02-05T08:15:37.245Z,8
2018-02-05T08:16:37.251Z,8
2018-02-05T08:17:37.328Z,9
2018-02-05T08:18:37.243Z,12
2018-02-05T08:19:37.320Z,15
2018-02-05T08:20:37.252Z,16
2018-02-05T08:21:37.321Z,19
2018-02-05T08:22:37.317Z,21
2018-02-05T08:23:37.250Z,24
2018-02-05T08:24:37.254Z,28
2018-02-05T08:25:37.255Z,29
2018-02-05T08:26:37.322Z,31
2018-02-05T08:27:37.324Z,34
2018-02-05T08:28:37.279Z,39
2018-02-05T08:29:37.227Z,36
2018-02-05T08:30:37.313Z,30
2018-02-05T08:31:37.193Z,25
2018-02-05T08:32:37.198Z,25
2018-02-05T08:33:37.229Z,23
2018-02-05T08:34:37.295Z,23
2018-02-05T08:35:37.320Z,28
2018-02-05T08:36:37.232Z,35
2018-02-05T08:37:37.200Z,38
2018-02-05T08:38:37.282Z,34
2018-02-05T08:39:37.267Z,33
2018-02-05T08:40:37.332Z,34
2018-02-05T08:41:37.331Z,35
2018-02-05T08:42:37.309Z,35
2018-02-05T08:43:37.268Z,39
2018-02-05T08:44:37.335Z,41
2018-02-05T08:45:37.274Z,43
2018-02-05T08:46:37.333Z,45
2018-02-05T08:47:37.265Z,45
2018-02-05T08:48:37.336Z,47
2018-02-05T08:49:37.218Z,51
2018-02-05T08:50:37.303Z,56
2018-02-05T08:51:37.227Z,60
2018-02-05T08:52:37.268Z,67
2018-02-05T08:53:37.401Z,70
2018-02-05T08:54:37.302Z,67
2018-02-05T08:55:37.291Z,62
2018-02-05T08:56:37.333Z,60
2018-02-05T08:57:37.225Z,62
2018-02-05T08:58:37.248Z,63
2018-02-05T08:59:37.273Z,60
2018-02-05T09:00:37.339Z,62
2018-02-05T09:01:37.503Z,59
2018-02-05T09:02:37.343Z,56
2018-02-05T09:03:37.240Z,54
2018-02-05T09:04:37.281Z,50
2018-02-05T09:05:37.347Z,57
2018-02-05T09:06:37.346Z,93
2018-02-05T09:07:37.370Z,62
2018-02-05T09:08:37.280Z,69
2018-02-05T09:09:37.334Z,97
2018-02-05T09:10:37.344Z,98
2018-02-05T09:11:37.345Z,92
2018-02-05T09:12:37.219Z,67
2018-02-05T09:13:37.335Z,79
2018-02-05T09:14:37.333Z,52
2018-02-05T09:15:37.260Z,43
2018-02-05T09:16:37.276Z,95
2018-02-05T09:17:37.252Z,54
2018-02-05T09:18:37.260Z,36
2018-02-05T09:19:37.295Z,68
2018-02-05T09:20:37.352Z,40
2018-02-05T09:21:37.355Z,42
2018-02-05T09:22:37.310Z,62
2018-02-05T09:23:37.357Z,49
2018-02-05T09:24:37.291Z,81
2018-02-05T09:25:37.358Z,56
2018-02-05T09:26:37.292Z,57
2018-02-05T09:27:37.358Z,57
2018-02-05T09:28:37.294Z,58
2018-02-05T09:29:37.313Z,65
2018-02-05T09:30:37.311Z,70
2018-02-05T09:31:37.312Z,53
2018-02-05T09:32:37.350Z,66
2018-02-05T09:33:37.262Z,140
2018-02-05T09:34:37.348Z,62
2018-02-05T09:35:37.264Z,129
2018-02-05T09:36:37.312Z,99
2018-02-05T09:37:37.226Z,66
2018-02-05T09:38:37.270Z,155
2018-02-05T09:39:37.255Z,146
2018-02-05T09:40:37.287Z,142
2018-02-05T09:41:37.257Z,148
2018-02-05T09:42:37.327Z,151
2018-02-05T09:43:37.289Z,145
2018-02-05T09:44:37.299Z,134
2018-02-05T09:45:37.322Z,137
2018-02-05T09:46:37.238Z,136
2018-02-05T09:47:37.265Z,136
2018-02-05T09:48:37.321Z,132
2018-02-05T09:49:37.305Z,132
2018-02-05T09:50:37.370Z,126
2018-02-05T09:51:37.309Z,139
2018-02-05T09:52:37.374Z,54
2018-02-05T09:53:37.340Z,139
2018-02-05T09:54:37.379Z,141
2018-02-05T09:55:37.312Z,61
2018-02-05T09:56:37.313Z,136
2018-02-05T09:57:37.374Z,142
2018-02-05T09:58:37.308Z,111
2018-02-05T09:59:37.258Z,151
2018-02-05T10:00:37.327Z,146
2018-02-05T10:01:37.362Z,155
2018-02-05T10:02:37.263Z,137
2018-02-05T10:03:37.368Z,149
2018-02-05T10:04:37.388Z,151
2018-02-05T10:05:37.284Z,152
2018-02-05T10:06:37.332Z,150
2018-02-05T10:07:37.328Z,149
2018-02-05T10:08:37.365Z,153
2018-02-05T10:09:37.311Z,145
2018-02-05T10:10:37.415Z,151
2018-02-05T10:11:37.319Z,153
2018-02-05T10:12:37.386Z,156
2018-02-05T10:13:37.315Z,158
2018-02-05T10:14:37.386Z,156
2018-02-05T10:15:37.317Z,159
2018-02-05T10:16:37.386Z,159
2018-02-05T10:17:37.318Z,153
2018-02-05T10:18:37.387Z,159
2018-02-05T10:19:37.324Z,146
2018-02-05T10:20:37.390Z,146
2018-02-05T10:21:37.320Z,160
2018-02-05T10:22:37.279Z,170
2018-02-05T10:23:37.319Z,171
2018-02-05T10:24:37.389Z,169
2018-02-05T10:25:37.321Z,164
2018-02-05T10:26:37.391Z,163
2018-02-05T10:27:37.324Z,171
2018-02-05T10:28:37.392Z,167
2018-02-05T10:29:37.319Z,66
2018-02-05T10:30:37.400Z,162
2018-02-05T10:31:37.395Z,177
2018-02-05T10:32:37.324Z,176
2018-02-05T10:33:37.397Z,175
2018-02-05T10:34:37.367Z,104
2018-02-05T10:35:37.397Z,187
2018-02-05T10:36:37.328Z,96
2018-02-05T10:37:37.400Z,176
2018-02-05T10:38:37.333Z,63
2018-02-05T10:39:37.400Z,196
2018-02-05T10:40:37.399Z,194
2018-02-05T10:41:37.332Z,197
2018-02-05T10:42:37.402Z,196
2018-02-05T10:43:37.333Z,187
2018-02-05T10:44:37.405Z,203
2018-02-05T10:45:37.340Z,207
2018-02-05T10:46:37.335Z,209
2018-02-05T10:47:37.614Z,207
2018-02-05T10:48:37.338Z,212
2018-02-05T10:49:37.406Z,215
2018-02-05T10:50:37.337Z,220
2018-02-05T10:51:37.405Z,218
2018-02-05T10:52:37.336Z,223
2018-02-05T10:53:37.407Z,229
2018-02-05T10:54:37.335Z,231
2018-02-05T10:55:37.338Z,227
2018-02-05T10:56:37.414Z,214
2018-02-05T10:57:37.335Z,230
2018-02-05T10:58:37.411Z,240
2018-02-05T10:59:37.297Z,243
2018-02-05T11:00:37.347Z,244
2018-02-05T11:01:37.416Z,247
2018-02-05T11:02:37.403Z,250
2018-02-05T11:03:37.318Z,254
2018-02-05T11:04:37.314Z,231
2018-02-05T11:05:37.448Z,107
2018-02-05T11:06:37.416Z,229
2018-02-05T11:07:37.347Z,75
2018-02-05T11:08:37.318Z,250
2018-02-05T11:09:37.345Z,272
2018-02-05T11:10:37.424Z,284
2018-02-05T11:11:37.347Z,287
2018-02-05T11:12:37.466Z,151
2018-02-05T11:13:37.351Z,233
2018-02-05T11:14:37.423Z,225
2018-02-05T11:15:37.431Z,312
2018-02-05T11:16:37.355Z,317
2018-02-05T11:17:37.352Z,328
2018-02-05T11:18:37.428Z,347
2018-02-05T11:19:37.353Z,301
2018-02-05T11:20:37.426Z,340
2018-02-05T11:21:37.428Z,306
2018-02-05T11:22:37.360Z,150
2018-02-05T11:23:37.427Z,367
2018-02-05T11:24:37.360Z,396
2018-02-05T11:25:37.430Z,420
2018-02-05T11:26:37.358Z,203
2018-02-05T11:27:37.432Z,188
2018-02-05T11:28:37.360Z,417
2018-02-05T11:29:37.354Z,401
2018-02-05T11:30:37.431Z,215
2018-02-05T11:31:37.298Z,437
2018-02-05T11:32:37.315Z,288
2018-02-05T11:33:37.312Z,205
2018-02-05T11:34:37.314Z,202
2018-02-05T11:35:37.399Z,232
2018-02-05T11:36:37.334Z,259
2018-02-05T11:37:37.401Z,237
2018-02-05T11:38:37.425Z,211
2018-02-05T11:39:37.381Z,187
2018-02-05T11:40:37.363Z,450
2018-02-05T11:41:37.330Z,139
2018-02-05T11:42:37.420Z,119
2018-02-05T11:43:37.377Z,103
2018-02-05T11:44:37.331Z,97
2018-02-05T11:45:37.368Z,89
2018-02-05T11:47:37.389Z,103
2018-02-05T11:48:37.391Z,97
2018-02-05T11:49:37.402Z,88
2018-02-05T11:50:37.386Z,91
2018-02-05T11:51:37.404Z,93
2018-02-05T11:52:37.424Z,85
2018-02-05T11:53:37.367Z,85
2018-02-05T11:54:37.405Z,87
2018-02-05T11:55:37.388Z,90
2018-02-05T11:56:37.304Z,95
2018-02-05T11:57:37.389Z,91
2018-02-05T11:58:37.406Z,110
2018-02-05T11:59:37.368Z,122
2018-02-05T12:00:37.342Z,123
2018-02-05T12:01:37.378Z,126
2018-02-05T12:02:37.411Z,140
2018-02-05T12:03:37.343Z,152
2018-02-05T12:04:37.373Z,126
2018-02-05T12:05:37.315Z,155
2018-02-05T12:06:37.407Z,183
2018-02-05T12:07:37.349Z,209
2018-02-05T12:08:37.384Z,213
2018-02-05T12:09:37.388Z,196
2018-02-05T12:10:37.454Z,212
2018-02-05T12:11:37.384Z,201
2018-02-05T12:12:37.386Z,173
2018-02-05T12:13:37.388Z,147
2018-02-05T12:14:37.457Z,159
2018-02-05T12:15:37.386Z,180
2018-02-05T12:16:37.459Z,159
2018-02-05T12:17:37.459Z,160
2018-02-05T12:18:37.460Z,340
2018-02-05T12:19:37.384Z,170
2018-02-05T12:20:37.420Z,194
2018-02-05T12:21:37.391Z,279
2018-02-05T12:22:37.423Z,311
2018-02-05T12:23:37.367Z,529
2018-02-05T12:24:37.445Z,543
2018-02-05T12:25:37.318Z,527
2018-02-05T12:26:37.371Z,393
2018-02-05T12:27:37.370Z,346
2018-02-05T12:28:37.423Z,152
2018-02-05T12:29:37.467Z,202
2018-02-05T12:30:37.397Z,117
2018-02-05T12:31:37.469Z,137
2018-02-05T12:32:37.445Z,123
2018-02-05T12:33:37.485Z,132
2018-02-05T12:34:37.404Z,115
2018-02-05T12:35:37.402Z,120
2018-02-05T12:36:37.470Z,125
2018-02-05T12:37:37.403Z,131
2018-02-05T12:38:37.471Z,138
2018-02-05T12:39:37.401Z,131
2018-02-05T12:40:37.409Z,135
2018-02-05T12:41:37.473Z,123
2018-02-05T12:42:37.408Z,113
2018-02-05T12:43:37.475Z,107
2018-02-05T12:44:37.406Z,103
2018-02-05T12:45:37.411Z,100
2018-02-05T12:46:37.508Z,103
2018-02-05T12:47:37.412Z,116
2018-02-05T12:48:37.479Z,229
2018-02-05T12:49:37.433Z,258
2018-02-05T12:50:37.481Z,157
2018-02-05T12:51:37.413Z,144
2018-02-05T12:52:37.481Z,141
2018-02-05T12:53:37.481Z,142
2018-02-05T12:54:37.412Z,134
2018-02-05T12:55:37.488Z,156
2018-02-05T12:56:37.414Z,136
2018-02-05T12:57:37.485Z,148
2018-02-05T12:58:37.485Z,162
2018-02-05T12:59:37.417Z,177
2018-02-05T13:00:37.485Z,187
2018-02-05T13:01:37.489Z,194
2018-02-05T13:02:37.419Z,199
2018-02-05T13:03:37.488Z,199
2018-02-05T13:04:37.415Z,191
2018-02-05T13:05:37.487Z,191
2018-02-05T13:06:37.418Z,187
2018-02-05T13:07:37.418Z,198
2018-02-05T13:08:37.490Z,194
2018-02-05T13:09:37.423Z,196
2018-02-05T13:10:37.422Z,214
2018-02-05T13:11:37.492Z,230
2018-02-05T13:12:37.422Z,238
2018-02-05T13:13:37.498Z,233
2018-02-05T13:14:37.427Z,217
2018-02-05T13:15:37.496Z,216
2018-02-05T13:16:37.429Z,208
2018-02-05T13:17:37.511Z,267
2018-02-05T13:18:37.425Z,207
2018-02-05T13:19:37.500Z,251
2018-02-05T13:20:37.577Z,175
2018-02-05T13:21:37.503Z,153
2018-02-05T13:22:37.431Z,155
2018-02-05T13:23:37.499Z,409
2018-02-05T13:24:37.428Z,129
2018-02-05T13:25:37.500Z,128
2018-02-05T13:26:37.430Z,210
2018-02-05T13:27:37.507Z,146
2018-02-05T13:28:37.435Z,160
2018-02-05T13:29:37.436Z,162
2018-02-05T13:30:37.447Z,250
2018-02-05T13:31:37.450Z,457
2018-02-05T13:32:37.457Z,471
2018-02-05T13:33:37.470Z,474
2018-02-05T13:34:37.433Z,459
2018-02-05T13:35:37.370Z,476
2018-02-05T13:36:37.400Z,467
2018-02-05T13:37:37.374Z,465
2018-02-05T13:38:37.370Z,392
2018-02-05T13:39:37.399Z,408
2018-02-05T13:40:37.439Z,371
2018-02-05T13:41:37.469Z,173
2018-02-05T13:42:37.405Z,156
2018-02-05T13:43:37.375Z,162
2018-02-05T13:44:37.474Z,175
2018-02-05T13:45:37.491Z,170
2018-02-05T13:46:37.399Z,163
2018-02-05T13:47:37.382Z,254
2018-02-05T13:48:37.426Z,180
2018-02-05T13:49:37.402Z,139
2018-02-05T13:50:37.464Z,132
2018-02-05T13:51:37.417Z,166
2018-02-05T13:52:37.459Z,187
2018-02-05T13:53:37.405Z,202
2018-02-05T13:54:37.380Z,206
2018-02-05T13:55:37.379Z,202
2018-02-05T13:56:37.520Z,224
2018-02-05T13:57:37.423Z,175
2018-02-05T13:58:37.406Z,182
2018-02-05T13:59:37.510Z,159
2018-02-05T14:00:37.525Z,176
2018-02-05T14:01:37.457Z,151
2018-02-05T14:02:37.523Z,154
2018-02-05T14:03:37.457Z,156
2018-02-05T14:04:37.523Z,162
2018-02-05T14:05:37.459Z,175
2018-02-05T14:06:37.527Z,236
2018-02-05T14:07:37.453Z,168
2018-02-05T14:08:37.528Z,174
2018-02-05T14:09:37.529Z,185
2018-02-05T14:10:37.491Z,201
2018-02-05T14:11:37.500Z,261
2018-02-05T14:12:37.492Z,280
2018-02-05T14:13:37.528Z,195
2018-02-05T14:14:37.495Z,191
2018-02-05T14:15:37.435Z,179
2018-02-05T14:16:37.434Z,183
2018-02-05T14:17:37.455Z,188
2018-02-05T14:18:37.439Z,180
2018-02-05T14:19:37.416Z,169
2018-02-05T14:20:37.538Z,146
2018-02-05T14:21:37.464Z,124
2018-02-05T14:22:37.543Z,108
2018-02-05T14:23:37.468Z,102
2018-02-05T14:24:37.535Z,105